createdAt,value
2019-01-31T00:01:39.905Z,3.10
2019-01-31T00:04:28.708Z,3.10
2019-01-31T00:07:40.723Z,3.00
2019-01-31T00:10:33.179Z,3.10
2019-01-31T00:13:43.016Z,3.00
2019-01-31T00:16:35.273Z,3.00
2019-01-31T00:19:35.080Z,3.00
2019-01-31T00:22:47.364Z,3.00
2019-01-31T00:25:39.273Z,3.00
2019-01-31T00:28:42.100Z,3.00
2019-01-31T00:31:36.873Z,3.10
2019-01-31T00:34:49.708Z,3.10
2019-01-31T00:37:40.483Z,3.10
2019-01-31T00:40:19.293Z,3.10
2019-01-31T00:43:18.420Z,3.10
2019-01-31T00:46:18.761Z,3.20
2019-01-31T00:49:16.605Z,3.20
2019-01-31T00:52:12.159Z,3.30
2019-01-31T00:55:34.347Z,3.20
2019-01-31T00:58:33.198Z,3.10
2019-01-31T01:01:37.783Z,3.20
2019-01-31T01:04:43.532Z,3.20
2019-01-31T01:08:02.589Z,3.30
2019-01-31T01:11:11.056Z,3.30
2019-01-31T01:13:51.109Z,3.30
2019-01-31T01:16:39.145Z,3.30
2019-01-31T01:20:01.109Z,3.30
2019-01-31T01:22:44.651Z,3.30
2019-01-31T01:25:57.007Z,3.30
2019-01-31T01:28:58.107Z,3.30
2019-01-31T01:32:11.236Z,3.30
2019-01-31T01:35:22.440Z,3.30
2019-01-31T01:38:50.768Z,3.20
2019-01-31T01:41:54.522Z,3.20
2019-01-31T01:45:04.880Z,3.20
2019-01-31T01:47:39.469Z,3.20
2019-01-31T01:50:21.032Z,3.10
2019-01-31T01:53:26.096Z,3.10
2019-01-31T01:56:37.720Z,3.10
2019-01-31T01:59:46.588Z,3.10
2019-01-31T02:02:54.113Z,3.10
2019-01-31T02:05:50.780Z,3.10
2019-01-31T02:09:02.067Z,3.00
2019-01-31T02:11:58.669Z,3.00
2019-01-31T02:15:16.374Z,3.00
2019-01-31T02:18:26.413Z,2.90
2019-01-31T02:21:25.212Z,2.90
2019-01-31T02:24:08.052Z,2.90
2019-01-31T02:27:04.779Z,2.80
2019-01-31T02:30:02.692Z,2.90
2019-01-31T02:33:07.404Z,2.80
2019-01-31T02:36:29.071Z,2.80
2019-01-31T02:39:47.647Z,2.80
2019-01-31T02:42:45.386Z,2.70
2019-01-31T02:45:37.298Z,2.70
2019-01-31T02:48:21.980Z,2.60
2019-01-31T02:51:22.173Z,2.60
2019-01-31T02:54:31.551Z,2.60
2019-01-31T02:57:32.413Z,2.60
2019-01-31T03:00:29.837Z,2.60
2019-01-31T03:03:30.482Z,2.60
2019-01-31T03:06:29.417Z,2.50
2019-01-31T03:09:27.544Z,2.50
2019-01-31T03:12:09.343Z,2.50
2019-01-31T03:14:43.854Z,2.50
2019-01-31T03:17:56.992Z,2.50
2019-01-31T03:21:10.125Z,2.50
2019-01-31T03:24:11.187Z,2.50
2019-01-31T03:27:07.024Z,2.40
2019-01-31T03:30:24.742Z,2.40
2019-01-31T03:33:15.209Z,2.30
2019-01-31T03:36:34.344Z,2.30
2019-01-31T03:39:41.360Z,2.20
2019-01-31T03:42:54.838Z,2.20
2019-01-31T03:46:03.317Z,2.20
2019-01-31T03:48:55.004Z,2.20
2019-01-31T03:51:48.495Z,2.20
2019-01-31T03:55:04.947Z,2.20
2019-01-31T03:58:06.370Z,2.20
2019-01-31T04:00:48.911Z,2.10
2019-01-31T04:03:32.428Z,2.10
2019-01-31T04:06:14.146Z,2.10
2019-01-31T04:08:43.118Z,2.00
2019-01-31T04:11:12.133Z,2.00
2019-01-31T04:13:41.137Z,2.00
2019-01-31T04:16:10.160Z,1.90
2019-01-31T04:18:39.152Z,1.90
2019-01-31T04:21:09.175Z,1.90
2019-01-31T04:23:38.123Z,1.90
2019-01-31T04:26:09.189Z,1.90
2019-01-31T04:28:38.347Z,1.90
2019-01-31T04:31:07.368Z,1.90
2019-01-31T04:33:36.390Z,2.00
2019-01-31T04:36:05.388Z,1.90
2019-01-31T04:38:34.413Z,1.90
2019-01-31T04:41:03.344Z,1.90
2019-01-31T04:43:32.336Z,1.90
2019-01-31T04:46:01.357Z,1.90
2019-01-31T04:48:31.064Z,1.90
2019-01-31T04:51:00.009Z,1.90
2019-01-31T04:53:28.948Z,1.90
2019-01-31T04:55:57.901Z,1.90
2019-01-31T04:58:26.855Z,1.90
2019-01-31T05:00:55.803Z,1.90
2019-01-31T05:03:24.747Z,1.90
2019-01-31T05:05:53.721Z,1.90
2019-01-31T05:08:22.647Z,1.90
2019-01-31T05:10:51.644Z,1.90
2019-01-31T05:13:20.524Z,1.90
2019-01-31T05:15:49.445Z,1.80
2019-01-31T05:18:18.307Z,1.80
2019-01-31T05:20:47.550Z,1.80
2019-01-31T05:23:16.480Z,1.80
2019-01-31T05:25:45.476Z,1.80
2019-01-31T05:28:14.413Z,1.80
2019-01-31T05:30:43.312Z,1.80
2019-01-31T05:33:12.526Z,1.80
2019-01-31T05:35:41.504Z,1.80
2019-01-31T05:38:10.510Z,1.80
2019-01-31T05:40:39.502Z,1.80
2019-01-31T05:43:08.432Z,1.90
2019-01-31T05:45:37.432Z,1.90
2019-01-31T05:48:06.440Z,1.80
2019-01-31T05:50:35.353Z,1.80
2019-01-31T05:53:04.421Z,1.90
2019-01-31T05:55:33.306Z,1.90
2019-01-31T05:58:02.304Z,1.90
2019-01-31T06:00:35.886Z,1.90
2019-01-31T06:03:05.200Z,1.90
2019-01-31T06:05:34.598Z,1.80
2019-01-31T06:08:03.600Z,1.80
2019-01-31T06:10:33.653Z,1.80
2019-01-31T06:13:02.914Z,1.80
2019-01-31T06:15:31.936Z,1.80
2019-01-31T06:18:01.208Z,1.90
2019-01-31T06:20:30.232Z,2.00
2019-01-31T06:22:59.250Z,2.00
2019-01-31T06:25:28.189Z,2.00
2019-01-31T06:27:57.188Z,2.00
2019-01-31T06:30:26.316Z,2.00
2019-01-31T06:32:55.345Z,2.00
2019-01-31T06:35:24.694Z,2.00
2019-01-31T06:37:53.544Z,2.00
2019-01-31T06:40:22.557Z,2.00
2019-01-31T06:42:52.477Z,2.00
2019-01-31T06:45:22.297Z,2.00
2019-01-31T06:47:51.596Z,2.00
2019-01-31T06:50:20.594Z,1.90
2019-01-31T06:52:49.457Z,1.90
2019-01-31T06:55:19.353Z,1.90
2019-01-31T06:57:48.290Z,1.80
2019-01-31T07:00:21.989Z,1.80
2019-01-31T07:02:51.304Z,1.80
2019-01-31T07:05:20.314Z,1.90
2019-01-31T07:07:49.379Z,2.00
2019-01-31T07:10:23.981Z,2.00
2019-01-31T07:12:53.022Z,2.00
2019-01-31T07:15:21.976Z,2.10
2019-01-31T07:17:51.372Z,2.10
2019-01-31T07:20:20.486Z,2.20
2019-01-31T07:22:49.446Z,2.20
2019-01-31T07:25:21.766Z,2.30
2019-01-31T07:27:53.482Z,2.20
2019-01-31T07:30:26.739Z,2.30
2019-01-31T07:32:56.284Z,2.30
2019-01-31T07:35:25.234Z,2.20
2019-01-31T07:37:54.236Z,2.20
2019-01-31T07:40:23.463Z,2.20
2019-01-31T07:42:52.448Z,2.30
2019-01-31T07:45:23.629Z,2.30
2019-01-31T07:47:54.983Z,2.40
2019-01-31T07:50:24.068Z,2.50
2019-01-31T07:52:53.568Z,2.50
2019-01-31T07:55:22.589Z,2.50
2019-01-31T07:57:52.276Z,2.50
2019-01-31T08:00:21.823Z,2.50
2019-01-31T08:02:50.866Z,2.50
2019-01-31T08:05:20.985Z,2.30
2019-01-31T08:07:51.355Z,2.60
2019-01-31T08:10:26.149Z,2.70
2019-01-31T08:12:55.166Z,2.70
2019-01-31T08:15:24.213Z,2.80
2019-01-31T08:17:55.796Z,2.80
2019-01-31T08:20:24.856Z,2.80
2019-01-31T08:22:53.866Z,2.80
2019-01-31T08:25:23.697Z,2.80
2019-01-31T08:27:52.725Z,2.80
2019-01-31T08:30:24.230Z,2.70
2019-01-31T08:32:53.299Z,2.70
2019-01-31T08:35:22.317Z,2.70
2019-01-31T08:37:51.353Z,2.80
2019-01-31T08:40:20.400Z,2.80
2019-01-31T08:43:08.537Z,2.70
2019-01-31T08:45:37.486Z,2.80
2019-01-31T08:48:07.489Z,2.80
2019-01-31T08:50:36.513Z,2.80
2019-01-31T08:53:05.652Z,2.80
2019-01-31T08:55:34.702Z,2.80
2019-01-31T08:58:03.708Z,2.80
2019-01-31T09:00:32.733Z,2.80
2019-01-31T09:03:02.069Z,2.80
2019-01-31T09:05:31.150Z,2.80
2019-01-31T09:08:00.480Z,2.80
2019-01-31T09:10:31.872Z,2.80
2019-01-31T09:13:02.877Z,2.80
2019-01-31T09:15:31.784Z,2.80
2019-01-31T09:18:02.944Z,2.70
2019-01-31T09:20:47.708Z,2.70
2019-01-31T09:24:10.313Z,2.60
2019-01-31T09:27:27.174Z,2.60
2019-01-31T09:30:34.801Z,2.60
2019-01-31T09:33:33.072Z,2.60
2019-01-31T09:36:18.079Z,2.70
2019-01-31T09:39:19.088Z,2.70
2019-01-31T09:42:00.237Z,2.50
2019-01-31T09:45:18.385Z,2.60
2019-01-31T09:48:24.265Z,2.70
2019-01-31T09:51:33.041Z,2.60
2019-01-31T09:54:36.391Z,2.60
2019-01-31T09:57:43.461Z,2.50
2019-01-31T10:00:54.021Z,2.60
2019-01-31T10:03:55.289Z,2.60
2019-01-31T10:07:17.980Z,2.60
2019-01-31T10:10:15.167Z,2.60
2019-01-31T10:13:20.661Z,2.70
2019-01-31T10:16:55.043Z,2.70
2019-01-31T10:20:12.228Z,2.60
2019-01-31T10:23:30.501Z,2.70
2019-01-31T10:26:37.949Z,2.80
2019-01-31T10:29:43.813Z,2.70
2019-01-31T10:32:44.355Z,2.70
2019-01-31T10:35:57.989Z,2.60
2019-01-31T10:38:51.486Z,2.70
2019-01-31T10:41:53.696Z,2.70
2019-01-31T10:44:44.388Z,2.70
2019-01-31T10:47:56.864Z,2.60
2019-01-31T10:50:47.264Z,2.70
2019-01-31T10:53:43.334Z,2.70
2019-01-31T10:57:17.944Z,2.60
2019-01-31T11:00:07.408Z,2.60
2019-01-31T11:03:09.281Z,2.60
2019-01-31T11:06:08.324Z,2.60
2019-01-31T11:09:00.331Z,2.60
2019-01-31T11:11:49.013Z,2.60
2019-01-31T11:14:45.958Z,2.60
2019-01-31T11:17:53.792Z,2.70
2019-01-31T11:20:58.880Z,2.70
2019-01-31T11:24:06.656Z,2.70
2019-01-31T11:27:09.383Z,2.70
2019-01-31T11:30:17.605Z,2.60
2019-01-31T11:33:36.899Z,2.60
2019-01-31T11:36:24.323Z,2.50
2019-01-31T11:39:29.621Z,2.60
2019-01-31T11:42:28.165Z,2.60
2019-01-31T11:45:20.248Z,2.70
2019-01-31T11:48:03.665Z,2.70
2019-01-31T11:51:12.920Z,2.60
2019-01-31T11:54:28.840Z,2.70
2019-01-31T11:57:57.124Z,2.60
2019-01-31T12:00:27.012Z,2.60
2019-01-31T12:02:56.135Z,2.60
2019-01-31T12:05:25.168Z,2.70
2019-01-31T12:07:54.230Z,2.60
2019-01-31T12:10:24.063Z,2.60
2019-01-31T12:12:53.332Z,2.60
2019-01-31T12:15:22.278Z,2.60
2019-01-31T12:17:51.317Z,2.50
2019-01-31T12:20:21.142Z,2.50
2019-01-31T12:22:51.357Z,2.60
2019-01-31T12:25:20.776Z,2.70
2019-01-31T12:27:49.850Z,2.70
2019-01-31T12:30:21.708Z,2.70
2019-01-31T12:32:50.556Z,2.80
2019-01-31T12:35:19.568Z,2.70
2019-01-31T12:37:48.535Z,2.80
2019-01-31T12:40:18.016Z,2.80
2019-01-31T12:42:47.188Z,2.80
2019-01-31T12:45:17.720Z,2.80
2019-01-31T12:47:46.657Z,2.80
2019-01-31T12:50:18.482Z,2.90
2019-01-31T12:52:47.518Z,2.90
2019-01-31T12:55:16.548Z,2.90
2019-01-31T12:57:45.587Z,2.80
2019-01-31T13:00:26.189Z,2.80
2019-01-31T13:02:55.319Z,2.80
2019-01-31T13:05:24.602Z,2.80
2019-01-31T13:07:53.635Z,2.90
2019-01-31T13:10:23.042Z,2.90
2019-01-31T13:12:52.929Z,3.00
2019-01-31T13:15:21.974Z,3.00
2019-01-31T13:17:50.985Z,2.90
2019-01-31T13:20:21.756Z,2.90
2019-01-31T13:22:54.873Z,2.90
2019-01-31T13:25:25.561Z,3.00
2019-01-31T13:27:54.701Z,3.00
2019-01-31T13:30:23.769Z,3.10
2019-01-31T13:32:53.780Z,3.10
2019-01-31T13:35:22.795Z,3.10
2019-01-31T13:37:54.098Z,3.10
2019-01-31T13:40:24.981Z,3.10
2019-01-31T13:42:55.922Z,3.10
2019-01-31T13:45:30.231Z,3.10
2019-01-31T13:48:02.844Z,3.10
2019-01-31T13:50:32.601Z,3.00
2019-01-31T13:53:01.650Z,3.00
2019-01-31T13:55:31.361Z,2.90
2019-01-31T13:58:00.286Z,3.00
2019-01-31T14:00:29.409Z,3.00
2019-01-31T14:02:58.443Z,3.00
2019-01-31T14:05:29.763Z,3.00
2019-01-31T14:07:58.232Z,2.90
2019-01-31T14:10:28.124Z,2.80
2019-01-31T14:12:57.233Z,2.80
2019-01-31T14:15:33.630Z,2.80
2019-01-31T14:17:59.652Z,2.70
2019-01-31T14:20:28.898Z,2.80
2019-01-31T14:22:58.216Z,2.70
2019-01-31T14:25:27.220Z,2.70
2019-01-31T14:27:56.345Z,2.80
2019-01-31T14:30:30.948Z,2.80
2019-01-31T14:33:24.252Z,2.60
2019-01-31T14:35:53.329Z,2.70
2019-01-31T14:38:22.349Z,2.70
2019-01-31T14:40:51.380Z,2.80
2019-01-31T14:43:20.400Z,2.80
2019-01-31T14:45:49.738Z,2.60
2019-01-31T14:48:18.623Z,2.60
2019-01-31T14:50:47.641Z,2.70
2019-01-31T14:53:16.624Z,2.80
2019-01-31T14:55:45.721Z,2.60
2019-01-31T14:58:14.783Z,2.70
2019-01-31T15:00:43.790Z,2.70
2019-01-31T15:03:12.824Z,2.70
2019-01-31T15:05:41.817Z,2.60
2019-01-31T15:08:10.956Z,2.50
2019-01-31T15:10:39.892Z,2.50
2019-01-31T15:13:08.911Z,2.50
2019-01-31T15:15:37.944Z,2.60
2019-01-31T15:18:08.234Z,2.50
2019-01-31T15:20:39.804Z,2.60
2019-01-31T15:23:08.876Z,2.60
2019-01-31T15:25:41.521Z,2.50
2019-01-31T15:28:10.532Z,2.50
2019-01-31T15:30:39.540Z,2.50
2019-01-31T15:33:14.080Z,2.50
2019-01-31T15:35:43.569Z,2.40
2019-01-31T15:38:12.708Z,2.40
2019-01-31T15:40:47.802Z,2.30
2019-01-31T15:43:16.915Z,2.20
2019-01-31T15:45:46.092Z,2.10
2019-01-31T15:48:15.235Z,2.20
2019-01-31T15:50:44.220Z,2.10
2019-01-31T15:53:13.533Z,2.10
2019-01-31T15:55:43.272Z,2.10
2019-01-31T15:58:12.280Z,2.10
2019-01-31T16:00:50.040Z,2.10
2019-01-31T16:03:21.046Z,2.20
2019-01-31T16:05:50.664Z,2.20
2019-01-31T16:08:19.970Z,2.20
2019-01-31T16:10:49.078Z,2.20
2019-01-31T16:13:18.354Z,2.20
2019-01-31T16:15:48.225Z,2.10
2019-01-31T16:18:25.521Z,2.10
2019-01-31T16:20:54.602Z,2.10
2019-01-31T16:23:24.604Z,2.00
2019-01-31T16:25:54.061Z,2.00
2019-01-31T16:28:23.077Z,2.00
2019-01-31T16:30:52.796Z,1.90
2019-01-31T16:33:23.612Z,1.90
2019-01-31T16:35:53.855Z,1.80
2019-01-31T16:38:24.080Z,1.90
2019-01-31T16:40:53.284Z,1.80
2019-01-31T16:43:22.296Z,1.70
2019-01-31T16:45:51.420Z,1.70
2019-01-31T16:48:20.812Z,1.70
2019-01-31T16:50:51.322Z,1.60
2019-01-31T16:53:20.541Z,1.50
2019-01-31T16:55:49.547Z,1.40
2019-01-31T16:58:43.400Z,1.40
2019-01-31T17:01:16.146Z,1.20
2019-01-31T17:03:50.132Z,1.20
2019-01-31T17:06:21.586Z,1.10
2019-01-31T17:08:51.272Z,1.20
2019-01-31T17:11:21.749Z,1.10
2019-01-31T17:13:51.778Z,1.10
2019-01-31T17:16:20.802Z,1.10
2019-01-31T17:18:49.796Z,1.00
2019-01-31T17:21:18.751Z,1.00
2019-01-31T17:23:47.729Z,0.80
2019-01-31T17:26:18.945Z,0.90
2019-01-31T17:28:47.924Z,0.90
2019-01-31T17:31:16.927Z,1.00
2019-01-31T17:33:45.872Z,1.00
2019-01-31T17:36:14.889Z,1.10
2019-01-31T17:38:43.861Z,1.00
2019-01-31T17:41:12.885Z,1.00
2019-01-31T17:43:41.730Z,0.90
2019-01-31T17:46:12.752Z,0.90
2019-01-31T17:48:41.704Z,0.90
2019-01-31T17:51:12.386Z,0.90
2019-01-31T17:53:41.453Z,0.90
2019-01-31T17:56:10.824Z,0.80
2019-01-31T17:58:39.820Z,0.90
2019-01-31T18:01:09.008Z,0.70
2019-01-31T18:03:38.295Z,0.70
2019-01-31T18:06:07.409Z,0.70
2019-01-31T18:08:36.482Z,0.80
2019-01-31T18:11:05.504Z,0.80
2019-01-31T18:13:34.494Z,0.70
2019-01-31T18:16:04.718Z,0.70
2019-01-31T18:18:33.740Z,0.70
2019-01-31T18:21:02.845Z,0.70
2019-01-31T18:23:31.718Z,0.70
2019-01-31T18:26:00.717Z,0.50
2019-01-31T18:28:29.770Z,0.60
2019-01-31T18:30:58.713Z,0.60
2019-01-31T18:33:27.807Z,0.60
2019-01-31T18:35:56.961Z,0.60
2019-01-31T18:38:25.988Z,0.70
2019-01-31T18:40:54.868Z,0.70
2019-01-31T18:43:23.799Z,0.70
2019-01-31T18:45:53.758Z,0.60
2019-01-31T18:48:22.968Z,0.60
2019-01-31T18:50:51.972Z,0.50
2019-01-31T18:53:20.964Z,0.60
2019-01-31T18:55:49.873Z,0.70
2019-01-31T18:58:20.039Z,0.70
2019-01-31T19:00:50.124Z,0.70
2019-01-31T19:03:19.592Z,0.70
2019-01-31T19:05:49.711Z,0.60
2019-01-31T19:08:18.629Z,0.60
2019-01-31T19:10:47.627Z,0.60
2019-01-31T19:13:16.621Z,0.60
2019-01-31T19:15:46.483Z,0.50
2019-01-31T19:18:15.572Z,0.50
2019-01-31T19:20:44.503Z,0.50
2019-01-31T19:23:13.491Z,0.40
2019-01-31T19:25:42.489Z,0.50
2019-01-31T19:28:13.227Z,0.50
2019-01-31T19:30:42.484Z,0.50
2019-01-31T19:33:11.596Z,0.50
2019-01-31T19:35:40.613Z,0.40
2019-01-31T19:38:10.244Z,0.50
2019-01-31T19:40:41.603Z,0.40
2019-01-31T19:43:10.788Z,0.30
2019-01-31T19:45:41.859Z,0.30
2019-01-31T19:48:11.236Z,0.30
2019-01-31T19:50:43.445Z,0.30
2019-01-31T19:53:11.377Z,0.30
2019-01-31T19:55:40.378Z,0.30
2019-01-31T19:58:09.548Z,0.30
2019-01-31T20:00:38.549Z,0.30
2019-01-31T20:03:08.672Z,0.30
2019-01-31T20:05:41.561Z,0.30
2019-01-31T20:08:12.041Z,0.30
2019-01-31T20:10:41.536Z,0.30
2019-01-31T20:13:10.536Z,0.30
2019-01-31T20:15:39.589Z,0.30
2019-01-31T20:18:09.204Z,0.20
2019-01-31T20:20:38.301Z,0.10
2019-01-31T20:23:07.762Z,0.20
2019-01-31T20:25:36.963Z,0.20
2019-01-31T20:28:06.091Z,0.20
2019-01-31T20:30:35.746Z,0.10
2019-01-31T20:33:06.437Z,0.10
2019-01-31T20:35:35.643Z,0.10
2019-01-31T20:38:04.940Z,0.10
2019-01-31T20:40:36.304Z,0.10
2019-01-31T20:43:06.899Z,0.10
2019-01-31T20:45:36.272Z,0.20
2019-01-31T20:48:07.290Z,0.20
2019-01-31T20:50:37.185Z,0.20
2019-01-31T20:53:06.793Z,0.20
2019-01-31T20:55:35.798Z,0.20
2019-01-31T20:58:05.577Z,0.20
2019-01-31T21:00:37.021Z,0.20
2019-01-31T21:03:06.962Z,0.20
2019-01-31T21:05:36.038Z,0.10
2019-01-31T21:08:06.051Z,0.20
2019-01-31T21:10:35.240Z,0.20
2019-01-31T21:13:06.641Z,0.30
2019-01-31T21:15:35.857Z,0.30
2019-01-31T21:18:05.920Z,0.40
2019-01-31T21:20:35.035Z,0.40
2019-01-31T21:23:04.372Z,0.50
2019-01-31T21:25:34.463Z,0.50
2019-01-31T21:28:04.784Z,0.50
2019-01-31T21:30:36.845Z,0.50
2019-01-31T21:33:07.253Z,0.50
2019-01-31T21:35:36.345Z,0.50
2019-01-31T21:38:05.624Z,0.60
2019-01-31T21:40:38.043Z,0.50
2019-01-31T21:43:07.133Z,0.50
2019-01-31T21:45:36.376Z,0.50
2019-01-31T21:48:08.938Z,0.50
2019-01-31T21:50:37.994Z,0.50
2019-01-31T21:53:07.194Z,0.50
2019-01-31T21:55:36.256Z,0.50
2019-01-31T21:58:06.018Z,0.60
2019-01-31T22:00:35.477Z,0.50
2019-01-31T22:03:05.334Z,0.60
2019-01-31T22:05:34.420Z,0.70
2019-01-31T22:08:03.435Z,0.70
2019-01-31T22:10:32.448Z,0.60
2019-01-31T22:13:02.933Z,0.60
2019-01-31T22:15:32.788Z,0.60
2019-01-31T22:18:01.822Z,0.60
2019-01-31T22:20:30.887Z,0.60
2019-01-31T22:22:59.877Z,0.60
2019-01-31T22:25:28.912Z,0.70
2019-01-31T22:27:58.227Z,0.60
2019-01-31T22:30:38.032Z,0.60
2019-01-31T22:33:08.539Z,0.60
2019-01-31T22:35:37.611Z,0.60
2019-01-31T22:38:06.995Z,0.60
2019-01-31T22:40:36.213Z,0.60
2019-01-31T22:43:05.882Z,0.70
2019-01-31T22:45:34.961Z,0.60
2019-01-31T22:48:05.364Z,0.70
2019-01-31T22:50:44.959Z,0.70
2019-01-31T22:53:13.840Z,0.70
2019-01-31T22:55:42.860Z,0.70
2019-01-31T22:58:11.785Z,0.70
2019-01-31T23:01:11.177Z,0.70
2019-01-31T23:03:40.725Z,0.60
2019-01-31T23:06:12.643Z,0.60
2019-01-31T23:08:41.677Z,0.60
2019-01-31T23:11:10.689Z,0.70
2019-01-31T23:13:39.636Z,0.70
2019-01-31T23:16:10.728Z,0.70
2019-01-31T23:18:39.811Z,0.70
2019-01-31T23:21:08.875Z,0.70
2019-01-31T23:23:37.874Z,0.70
2019-01-31T23:26:07.145Z,0.70
2019-01-31T23:28:36.133Z,0.70
2019-01-31T23:31:05.556Z,0.60
2019-01-31T23:33:34.424Z,0.70
2019-01-31T23:36:03.736Z,0.70
2019-01-31T23:38:32.739Z,0.70
2019-01-31T23:41:01.836Z,0.60
2019-01-31T23:43:32.836Z,0.60
2019-01-31T23:46:02.428Z,0.70
2019-01-31T23:48:31.276Z,0.70
2019-01-31T23:51:00.564Z,0.70
2019-01-31T23:53:29.613Z,0.70
2019-01-31T23:55:58.536Z,0.80
2019-01-31T23:58:27.511Z,0.80
